Lakewood Ranch, Florida
Current Conditions -  °F | °C
As of 3:53 PM on Sunday 21 Dec 2014 (Local Time) from KSRQ Reporting Station
Overcast Overcast  
Wind Chill: 76°   Ceiling: 8500
Heat Index: 76°   Visibility: 10mi
Dew Point: 66°   Wind: 15mph
Humidity: 71%   Direction: 180°S
Pressure: 29.98"   Gusts: NA
Location:  27.4465°N, 82.5324°W
Report Text: KSRQ 212053Z AUTO 18013KT 10SM FEW025 OVC085 24/19 A2998 RMK AO2 SLP151 T02440189 56009
Loading
Personal Weather Stations






























Interactive Weather Map New forecast layout! Learn more

10-Day Weather Forecast

Advertisements
Track Severe Weather on mobile